Terminal Aerodrome Forecast
Issued by NWS

Home | Current Version | Previous Version | Text Only | Print | Product List | Glossary On
Versions: 1 2 3 4 5 6 7 8 9 10 11 12
089
FTUS42 KFFC 202324
TAFPDK
TAF
KPDK 202324Z 2100/2124 31006KT P6SM FEW050 FEW250
     FM210100 00000KT P6SM FEW250
      TEMPO 2110/2112 4SM BR
     FM211300 01004KT P6SM FEW250
     FM211900 02006KT P6SM VCSH SCT050=

USA.gov is the U.S. government's official web portal to all federal, state and local government web resources and services.